createdAt,value
2016-09-09T00:00:08.737Z,1007.75
2016-09-09T00:01:08.731Z,1007.74
2016-09-09T00:02:08.723Z,1007.75
2016-09-09T00:03:08.716Z,1007.81
2016-09-09T00:04:08.707Z,1007.79
2016-09-09T00:05:08.701Z,1007.79
2016-09-09T00:06:08.695Z,1007.77
2016-09-09T00:07:08.686Z,1007.76
2016-09-09T00:08:08.678Z,1007.76
2016-09-09T00:09:08.672Z,1007.78
2016-09-09T00:10:08.665Z,1007.74
2016-09-09T00:11:08.660Z,1007.76
2016-09-09T00:12:08.650Z,1007.76
2016-09-09T00:13:08.643Z,1007.75
2016-09-09T00:14:08.635Z,1007.75
2016-09-09T00:15:08.627Z,1007.79
2016-09-09T00:16:08.621Z,1007.78
2016-09-09T00:17:08.613Z,1007.75
2016-09-09T00:18:08.604Z,1007.76
2016-09-09T00:19:08.598Z,1007.78
2016-09-09T00:20:08.591Z,1007.74
2016-09-09T00:21:08.586Z,1007.74
2016-09-09T00:22:08.575Z,1007.75
2016-09-09T00:23:08.569Z,1007.77
2016-09-09T00:24:08.564Z,1007.75
2016-09-09T00:25:08.553Z,1007.78
2016-09-09T00:26:08.547Z,1007.79
2016-09-09T00:27:08.541Z,1007.75
2016-09-09T00:28:08.531Z,1007.74
2016-09-09T00:29:08.524Z,1007.74
2016-09-09T00:30:08.516Z,1007.76
2016-09-09T00:31:08.511Z,1007.75
2016-09-09T00:32:08.502Z,1007.76
2016-09-09T00:33:08.494Z,1007.8
2016-09-09T00:34:08.485Z,1007.81
2016-09-09T00:35:08.482Z,1007.73
2016-09-09T00:36:08.472Z,1007.79
2016-09-09T00:37:08.467Z,1007.76
2016-09-09T00:38:08.458Z,1007.74
2016-09-09T00:39:08.450Z,1007.78
2016-09-09T00:40:08.442Z,1007.79
2016-09-09T00:41:08.437Z,1007.8
2016-09-09T00:42:08.428Z,1007.81
2016-09-09T00:43:08.421Z,1007.77
2016-09-09T00:44:08.413Z,1007.8
2016-09-09T00:45:08.407Z,1007.84
2016-09-09T00:46:08.400Z,1007.82
2016-09-09T00:47:08.391Z,1007.83
2016-09-09T00:48:08.384Z,1007.84
2016-09-09T00:49:08.377Z,1007.85
2016-09-09T00:50:08.368Z,1007.9
2016-09-09T00:51:08.361Z,1007.93
2016-09-09T00:52:08.354Z,1007.9
2016-09-09T00:53:08.349Z,1007.94
2016-09-09T00:54:08.339Z,1007.91
2016-09-09T00:55:08.331Z,1007.9
2016-09-09T00:56:08.324Z,1007.93
2016-09-09T00:57:08.319Z,1007.93
2016-09-09T00:58:08.311Z,1007.95
2016-09-09T00:59:08.303Z,1007.94
2016-09-09T01:00:08.295Z,1007.92
2016-09-09T01:01:08.290Z,1007.93
2016-09-09T01:02:08.283Z,1007.97
2016-09-09T01:03:08.272Z,1007.96
2016-09-09T01:04:08.267Z,1007.93
2016-09-09T01:05:08.258Z,1007.95
2016-09-09T01:06:08.254Z,1007.92
2016-09-09T01:07:08.253Z,1007.94
2016-09-09T01:08:08.238Z,1007.97
2016-09-09T01:09:08.227Z,1007.93
2016-09-09T01:10:08.227Z,1007.99
2016-09-09T01:11:08.213Z,1007.96
2016-09-09T01:12:08.207Z,1007.97
2016-09-09T01:13:08.199Z,1007.99
2016-09-09T01:14:08.192Z,1008.03
2016-09-09T01:15:08.189Z,1008.02
2016-09-09T01:16:08.177Z,1008.03
2016-09-09T01:17:08.168Z,1008.08
2016-09-09T01:18:08.160Z,1008.07
2016-09-09T01:19:08.157Z,1008.11
2016-09-09T01:20:08.148Z,1008.08
2016-09-09T01:21:08.140Z,1008.16
2016-09-09T01:22:08.133Z,1008.1
2016-09-09T01:23:08.128Z,1008.15
2016-09-09T01:24:08.119Z,1008.14
2016-09-09T01:25:08.109Z,1008.12
2016-09-09T01:26:08.108Z,1008.17
2016-09-09T01:27:08.093Z,1008.15
2016-09-09T01:28:08.088Z,1008.2
2016-09-09T01:29:08.079Z,1008.2
2016-09-09T01:30:08.074Z,1008.25
2016-09-09T01:31:08.064Z,1008.27
2016-09-09T01:32:08.058Z,1008.28
2016-09-09T01:33:08.051Z,1008.29
2016-09-09T01:34:08.045Z,1008.28
2016-09-09T01:35:08.035Z,1008.3
2016-09-09T01:36:08.031Z,1008.29
2016-09-09T01:37:08.021Z,1008.35
2016-09-09T01:38:08.015Z,1008.31
2016-09-09T01:39:08.012Z,1008.31
2016-09-09T01:40:08.001Z,1008.37
2016-09-09T01:41:07.990Z,1008.37
2016-09-09T01:42:07.985Z,1008.36
2016-09-09T01:43:07.976Z,1008.38
2016-09-09T01:44:07.970Z,1008.41
2016-09-09T01:45:07.961Z,1008.35
2016-09-09T01:46:07.956Z,1008.38
2016-09-09T01:47:07.947Z,1008.38
2016-09-09T01:48:07.940Z,1008.37
2016-09-09T01:49:07.930Z,1008.4
2016-09-09T01:50:07.924Z,1008.4
2016-09-09T01:51:07.918Z,1008.44
2016-09-09T01:52:07.911Z,1008.4
2016-09-09T01:53:07.901Z,1008.4
2016-09-09T01:54:07.898Z,1008.42
2016-09-09T01:55:07.889Z,1008.42
2016-09-09T01:56:07.881Z,1008.37
2016-09-09T01:57:07.873Z,1008.36
2016-09-09T01:58:07.866Z,1008.37
2016-09-09T01:59:07.858Z,1008.41
2016-09-09T02:00:07.851Z,1008.42
2016-09-09T02:01:07.841Z,1008.39
2016-09-09T02:02:07.835Z,1008.38
2016-09-09T02:03:07.829Z,1008.38
2016-09-09T02:04:07.821Z,1008.41
2016-09-09T02:05:07.812Z,1008.43
2016-09-09T02:06:07.808Z,1008.39
2016-09-09T02:07:07.796Z,1008.42
2016-09-09T02:08:07.791Z,1008.42
2016-09-09T02:09:07.783Z,1008.45
2016-09-09T02:10:07.775Z,1008.47
2016-09-09T02:11:07.766Z,1008.46
2016-09-09T02:12:07.760Z,1008.52
2016-09-09T02:13:07.753Z,1008.46
2016-09-09T02:14:07.746Z,1008.49
2016-09-09T02:15:07.737Z,1008.45
2016-09-09T02:16:07.730Z,1008.46
2016-09-09T02:17:07.723Z,1008.46
2016-09-09T02:18:07.919Z,1008.44
2016-09-09T02:19:07.709Z,1008.47
2016-09-09T02:20:07.699Z,1008.48
2016-09-09T02:21:07.691Z,1008.48
2016-09-09T02:22:07.686Z,1008.49
2016-09-09T02:23:07.676Z,1008.49
2016-09-09T02:24:07.670Z,1008.49
2016-09-09T02:25:07.661Z,1008.49
2016-09-09T02:26:07.654Z,1008.49
2016-09-09T02:27:07.645Z,1008.49
2016-09-09T02:28:07.641Z,1008.5
2016-09-09T02:29:07.630Z,1008.56
2016-09-09T02:30:07.623Z,1008.52
2016-09-09T02:31:07.619Z,1008.56
2016-09-09T02:32:07.611Z,1008.57
2016-09-09T02:33:07.600Z,1008.57
2016-09-09T02:34:07.594Z,1008.54
2016-09-09T02:35:07.586Z,1008.59
2016-09-09T02:36:07.578Z,1008.58
2016-09-09T02:37:07.575Z,1008.59
2016-09-09T02:38:07.562Z,1008.64
2016-09-09T02:39:07.561Z,1008.72
2016-09-09T02:40:07.546Z,1008.63
2016-09-09T02:41:07.540Z,1008.65
2016-09-09T02:42:07.533Z,1008.65
2016-09-09T02:43:07.526Z,1008.64
2016-09-09T02:44:07.515Z,1008.64
2016-09-09T02:45:07.510Z,1008.59
2016-09-09T02:46:07.500Z,1008.62
2016-09-09T02:47:07.492Z,1008.62
2016-09-09T02:48:07.495Z,1008.62
2016-09-09T02:49:07.475Z,1008.6
2016-09-09T02:50:07.472Z,1008.58
2016-09-09T02:51:07.460Z,1008.62
2016-09-09T02:52:07.456Z,1008.64
2016-09-09T02:53:07.445Z,1008.68
2016-09-09T02:54:07.438Z,1008.65
2016-09-09T02:55:07.429Z,1008.62
2016-09-09T02:56:07.422Z,1008.69
2016-09-09T02:57:07.414Z,1008.7
2016-09-09T02:58:07.407Z,1008.68
2016-09-09T02:59:07.400Z,1008.67
2016-09-09T03:00:07.390Z,1008.67
2016-09-09T03:01:07.382Z,1008.68
2016-09-09T03:02:07.373Z,1008.68
2016-09-09T03:03:07.366Z,1008.66
2016-09-09T03:04:07.365Z,1008.65
2016-09-09T03:05:07.351Z,1008.67
2016-09-09T03:06:07.342Z,1008.73
2016-09-09T03:07:07.334Z,1008.72
2016-09-09T03:08:07.328Z,1008.69
2016-09-09T03:09:07.320Z,1008.74
2016-09-09T03:10:07.310Z,1008.73
2016-09-09T03:11:07.305Z,1008.73
2016-09-09T03:12:07.296Z,1008.71
2016-09-09T03:13:07.287Z,1008.73
2016-09-09T03:14:07.279Z,1008.73
2016-09-09T03:15:07.271Z,1008.73
2016-09-09T03:16:07.263Z,1008.75
2016-09-09T03:17:07.254Z,1008.75
2016-09-09T03:18:07.248Z,1008.75
2016-09-09T03:19:07.241Z,1008.74
2016-09-09T03:20:07.232Z,1008.74
2016-09-09T03:21:07.226Z,1008.78
2016-09-09T03:22:07.216Z,1008.75
2016-09-09T03:23:07.209Z,1008.76
2016-09-09T03:24:07.200Z,1008.73
2016-09-09T03:25:07.193Z,1008.77
2016-09-09T03:26:07.184Z,1008.76
2016-09-09T03:27:07.177Z,1008.79
2016-09-09T03:28:07.168Z,1008.77
2016-09-09T03:29:07.160Z,1008.77
2016-09-09T03:30:07.155Z,1008.77
2016-09-09T03:31:07.144Z,1008.76
2016-09-09T03:32:07.137Z,1008.81
2016-09-09T03:33:07.128Z,1008.79
2016-09-09T03:34:07.122Z,1008.82
2016-09-09T03:35:07.114Z,1008.8
2016-09-09T03:36:07.106Z,1008.8
2016-09-09T03:37:07.098Z,1008.81
2016-09-09T03:38:07.091Z,1008.79
2016-09-09T03:39:07.081Z,1008.74
2016-09-09T03:40:07.076Z,1008.76
2016-09-09T03:41:07.067Z,1008.69
2016-09-09T03:42:07.058Z,1008.73
2016-09-09T03:43:07.050Z,1008.72
2016-09-09T03:44:07.042Z,1008.7
2016-09-09T03:45:07.040Z,1008.73
2016-09-09T03:46:07.028Z,1008.76
2016-09-09T03:47:07.019Z,1008.78
2016-09-09T03:48:07.010Z,1008.83
2016-09-09T03:49:07.003Z,1008.82
2016-09-09T03:50:06.995Z,1008.8
2016-09-09T03:51:06.986Z,1008.85
2016-09-09T03:52:06.980Z,1008.8
2016-09-09T03:53:06.971Z,1008.83
2016-09-09T03:54:06.965Z,1008.82
2016-09-09T03:55:06.955Z,1008.79
2016-09-09T03:56:06.948Z,1008.77
2016-09-09T03:57:06.937Z,1008.76
2016-09-09T03:58:06.935Z,1008.75
2016-09-09T03:59:06.924Z,1008.75
2016-09-09T04:00:06.916Z,1008.73
2016-09-09T04:01:06.952Z,1008.74
2016-09-09T04:02:06.907Z,1008.78
2016-09-09T04:03:06.890Z,1008.75
2016-09-09T04:04:06.884Z,1008.77
2016-09-09T04:05:06.875Z,1008.77
2016-09-09T04:06:06.866Z,1008.79
2016-09-09T04:07:06.860Z,1008.79
2016-09-09T04:08:06.850Z,1008.81
2016-09-09T04:09:06.841Z,1008.83
2016-09-09T04:10:06.836Z,1008.79
2016-09-09T04:11:06.827Z,1008.85
2016-09-09T04:12:06.818Z,1008.85
2016-09-09T04:13:06.809Z,1008.84
2016-09-09T04:14:06.800Z,1008.86
2016-09-09T04:15:06.792Z,1008.87
2016-09-09T04:16:06.785Z,1008.9
2016-09-09T04:17:06.777Z,1008.88
2016-09-09T04:18:06.970Z,1008.9
2016-09-09T04:19:06.759Z,1008.84
2016-09-09T04:20:06.754Z,1008.87
2016-09-09T04:21:06.743Z,1008.84
2016-09-09T04:22:06.736Z,1008.9
2016-09-09T04:23:06.727Z,1008.92
2016-09-09T04:24:06.722Z,1008.93
2016-09-09T04:25:06.712Z,1008.93
2016-09-09T04:26:06.703Z,1008.92
2016-09-09T04:27:06.695Z,1008.93
2016-09-09T04:28:06.686Z,1008.93
2016-09-09T04:29:06.679Z,1008.92
2016-09-09T04:30:06.671Z,1008.95
2016-09-09T04:31:06.663Z,1008.96
2016-09-09T04:32:06.660Z,1008.97
2016-09-09T04:33:06.649Z,1008.99
2016-09-09T04:34:06.638Z,1008.98
2016-09-09T04:35:06.628Z,1009
2016-09-09T04:36:06.622Z,1008.99
2016-09-09T04:37:06.614Z,1009.02
2016-09-09T04:38:06.618Z,1009.01
2016-09-09T04:39:06.604Z,1008.99
2016-09-09T04:40:06.590Z,1008.96
2016-09-09T04:41:06.579Z,1008.99
2016-09-09T04:42:06.574Z,1008.97
2016-09-09T04:43:06.565Z,1009.01
2016-09-09T04:44:06.556Z,1009.04
2016-09-09T04:45:06.546Z,1008.99
2016-09-09T04:46:06.541Z,1009.06
2016-09-09T04:47:06.534Z,1009.04
2016-09-09T04:48:06.527Z,1009.07
2016-09-09T04:49:06.519Z,1009.07
2016-09-09T04:50:06.506Z,1009.09
2016-09-09T04:51:06.500Z,1009.07
2016-09-09T04:52:06.489Z,1009.12
2016-09-09T04:53:06.481Z,1009.15
2016-09-09T04:54:06.474Z,1009.12
2016-09-09T04:55:06.467Z,1009.13
2016-09-09T04:56:06.458Z,1009.13
2016-09-09T04:57:06.448Z,1009.17
2016-09-09T04:58:06.442Z,1009.16
2016-09-09T04:59:06.430Z,1009.14
2016-09-09T05:00:06.422Z,1009.14
2016-09-09T05:01:06.413Z,1009.14
2016-09-09T05:02:06.408Z,1009.14
2016-09-09T05:03:06.400Z,1009.18
2016-09-09T05:04:06.389Z,1009.22
2016-09-09T05:05:06.381Z,1009.16
2016-09-09T05:06:06.373Z,1009.22
2016-09-09T05:07:06.367Z,1009.2
2016-09-09T05:08:06.359Z,1009.21
2016-09-09T05:09:06.351Z,1009.23
2016-09-09T05:10:06.343Z,1009.22
2016-09-09T05:11:06.333Z,1009.27
2016-09-09T05:12:06.325Z,1009.27
2016-09-09T05:13:06.317Z,1009.25
2016-09-09T05:14:06.307Z,1009.27
2016-09-09T05:15:06.300Z,1009.26
2016-09-09T05:16:06.291Z,1009.27
2016-09-09T05:17:06.285Z,1009.25
2016-09-09T05:18:06.277Z,1009.28
2016-09-09T05:19:06.269Z,1009.29
2016-09-09T05:20:06.261Z,1009.33
2016-09-09T05:21:06.250Z,1009.32
2016-09-09T05:22:06.241Z,1009.35
2016-09-09T05:23:06.235Z,1009.35
2016-09-09T05:24:06.226Z,1009.4
2016-09-09T05:25:06.218Z,1009.39
2016-09-09T05:26:06.210Z,1009.39
2016-09-09T05:27:06.202Z,1009.41
2016-09-09T05:28:06.192Z,1009.41
2016-09-09T05:29:06.184Z,1009.43
2016-09-09T05:30:06.179Z,1009.5
2016-09-09T05:31:06.178Z,1009.52
2016-09-09T05:32:06.162Z,1009.57
2016-09-09T05:33:06.153Z,1009.59
2016-09-09T05:34:06.146Z,1009.59
2016-09-09T05:35:06.137Z,1009.57
2016-09-09T05:36:06.128Z,1009.59
2016-09-09T05:37:06.128Z,1009.59
2016-09-09T05:38:06.116Z,1009.62
2016-09-09T05:39:06.104Z,1009.66
2016-09-09T05:40:06.097Z,1009.68
2016-09-09T05:41:06.089Z,1009.69
2016-09-09T05:42:06.082Z,1009.65
2016-09-09T05:43:06.072Z,1009.68
2016-09-09T05:44:06.065Z,1009.68
2016-09-09T05:45:06.055Z,1009.65
2016-09-09T05:46:06.047Z,1009.69
2016-09-09T05:47:06.041Z,1009.73
2016-09-09T05:48:06.030Z,1009.75
2016-09-09T05:49:06.024Z,1009.72
2016-09-09T05:50:06.014Z,1009.73
2016-09-09T05:51:06.007Z,1009.71
2016-09-09T05:52:05.998Z,1009.74
2016-09-09T05:53:05.991Z,1009.77
2016-09-09T05:54:05.980Z,1009.72
2016-09-09T05:55:05.974Z,1009.74
2016-09-09T05:56:05.967Z,1009.77
2016-09-09T05:57:05.957Z,1009.74
2016-09-09T05:58:05.949Z,1009.77
2016-09-09T05:59:05.942Z,1009.74
2016-09-09T06:00:05.933Z,1009.78
2016-09-09T06:01:05.926Z,1009.8
2016-09-09T06:02:05.916Z,1009.84
2016-09-09T06:03:05.909Z,1009.83
2016-09-09T06:04:05.901Z,1009.79
2016-09-09T06:05:05.892Z,1009.81
2016-09-09T06:06:05.887Z,1009.82
2016-09-09T06:07:05.877Z,1009.81
2016-09-09T06:08:05.872Z,1009.86
2016-09-09T06:09:05.861Z,1009.81
2016-09-09T06:10:05.852Z,1009.84
2016-09-09T06:11:05.845Z,1009.87
2016-09-09T06:12:05.836Z,1009.87
2016-09-09T06:13:05.826Z,1009.86
2016-09-09T06:14:05.820Z,1009.89
2016-09-09T06:15:05.811Z,1009.85
2016-09-09T06:16:05.804Z,1009.84
2016-09-09T06:17:05.796Z,1009.86
2016-09-09T06:18:05.992Z,1009.87
2016-09-09T06:19:05.780Z,1009.9
2016-09-09T06:20:05.772Z,1009.94
2016-09-09T06:21:05.764Z,1009.93
2016-09-09T06:22:05.757Z,1009.96
2016-09-09T06:23:05.747Z,1010
2016-09-09T06:24:05.740Z,1010
2016-09-09T06:25:05.732Z,1010.08
2016-09-09T06:26:05.724Z,1010.05
2016-09-09T06:27:05.718Z,1010.06
2016-09-09T06:28:05.713Z,1010.06
2016-09-09T06:29:05.700Z,1010.07
2016-09-09T06:30:05.698Z,1010.09
2016-09-09T06:31:05.686Z,1010.1
2016-09-09T06:32:05.681Z,1010.09
2016-09-09T06:33:05.672Z,1010.09
2016-09-09T06:34:05.661Z,1010.11
2016-09-09T06:35:05.655Z,1010.14
2016-09-09T06:36:05.647Z,1010.15
2016-09-09T06:37:05.639Z,1010.17
2016-09-09T06:38:05.630Z,1010.23
2016-09-09T06:39:05.625Z,1010.25
2016-09-09T06:40:05.620Z,1010.24
2016-09-09T06:41:05.605Z,1010.27
2016-09-09T06:42:05.600Z,1010.28
2016-09-09T06:43:05.591Z,1010.24
2016-09-09T06:44:05.587Z,1010.2
2016-09-09T06:45:05.575Z,1010.21
2016-09-09T06:46:05.568Z,1010.18
2016-09-09T06:47:05.559Z,1010.21
2016-09-09T06:48:05.552Z,1010.25
2016-09-09T06:49:05.547Z,1010.22
2016-09-09T06:50:05.538Z,1010.25
2016-09-09T06:51:05.529Z,1010.28
2016-09-09T06:52:05.521Z,1010.3
2016-09-09T06:53:05.522Z,1010.24
2016-09-09T06:54:05.506Z,1010.23
2016-09-09T06:55:05.498Z,1010.28
2016-09-09T06:56:05.491Z,1010.23
2016-09-09T06:57:05.483Z,1010.24
2016-09-09T06:58:05.478Z,1010.24
2016-09-09T06:59:05.475Z,1010.28
2016-09-09T07:00:05.463Z,1010.29
2016-09-09T07:01:05.452Z,1010.29
2016-09-09T07:02:05.445Z,1010.29
2016-09-09T07:03:05.437Z,1010.32
2016-09-09T07:04:05.429Z,1010.32
2016-09-09T07:05:05.425Z,1010.31
2016-09-09T07:06:05.413Z,1010.31
2016-09-09T07:07:05.408Z,1010.31
2016-09-09T07:08:05.401Z,1010.33
2016-09-09T07:09:05.393Z,1010.29
2016-09-09T07:10:05.384Z,1010.31
2016-09-09T07:11:05.377Z,1010.31
2016-09-09T07:12:05.378Z,1010.34
2016-09-09T07:13:05.362Z,1010.34
2016-09-09T07:14:05.353Z,1010.39
2016-09-09T07:15:05.346Z,1010.39
2016-09-09T07:16:05.338Z,1010.39
2016-09-09T07:17:05.332Z,1010.47
2016-09-09T07:18:05.326Z,1010.44
2016-09-09T07:19:05.316Z,1010.42
2016-09-09T07:20:05.309Z,1010.42
2016-09-09T07:21:05.302Z,1010.43
2016-09-09T07:22:05.297Z,1010.43
2016-09-09T07:23:05.288Z,1010.41
2016-09-09T07:24:05.281Z,1010.44
2016-09-09T07:25:05.275Z,1010.47
2016-09-09T07:26:05.265Z,1010.49
2016-09-09T07:27:05.260Z,1010.51
2016-09-09T07:28:05.251Z,1010.43
2016-09-09T07:29:05.243Z,1010.46
2016-09-09T07:30:05.242Z,1010.51
2016-09-09T07:31:05.229Z,1010.47
2016-09-09T07:32:05.223Z,1010.49
2016-09-09T07:33:05.214Z,1010.5
2016-09-09T07:34:05.207Z,1010.51
2016-09-09T07:35:05.201Z,1010.45
2016-09-09T07:36:05.194Z,1010.49
2016-09-09T07:37:05.192Z,1010.49
2016-09-09T07:38:05.181Z,1010.51
2016-09-09T07:39:05.173Z,1010.49
2016-09-09T07:40:05.166Z,1010.52
2016-09-09T07:41:05.158Z,1010.53
2016-09-09T07:42:05.153Z,1010.5
2016-09-09T07:43:05.145Z,1010.52
2016-09-09T07:44:05.138Z,1010.53
2016-09-09T07:45:05.131Z,1010.5
2016-09-09T07:46:05.125Z,1010.52
2016-09-09T07:47:05.117Z,1010.53
2016-09-09T07:48:05.126Z,1010.57
2016-09-09T07:49:05.104Z,1010.53
2016-09-09T07:50:05.097Z,1010.56
2016-09-09T07:51:05.090Z,1010.6
2016-09-09T07:52:05.081Z,1010.58
2016-09-09T07:53:05.076Z,1010.62
2016-09-09T07:54:05.073Z,1010.61
2016-09-09T07:55:05.060Z,1010.64
2016-09-09T07:56:05.057Z,1010.59
2016-09-09T07:57:05.046Z,1010.67
2016-09-09T07:58:05.042Z,1010.64
2016-09-09T07:59:05.034Z,1010.65
2016-09-09T08:00:05.030Z,1010.67
2016-09-09T08:01:05.020Z,1010.68
2016-09-09T08:02:05.014Z,1010.7
2016-09-09T08:03:05.007Z,1010.72
2016-09-09T08:04:05.001Z,1010.73
2016-09-09T08:05:04.994Z,1010.73
2016-09-09T08:06:04.986Z,1010.74
2016-09-09T08:07:04.979Z,1010.74
2016-09-09T08:08:04.973Z,1010.69
2016-09-09T08:09:04.966Z,1010.67
2016-09-09T08:10:04.960Z,1010.65
2016-09-09T08:11:04.967Z,1010.65
2016-09-09T08:12:04.947Z,1010.65
2016-09-09T08:13:04.940Z,1010.67
2016-09-09T08:14:04.939Z,1010.69
2016-09-09T08:15:04.925Z,1010.66
2016-09-09T08:16:04.919Z,1010.69
2016-09-09T08:17:04.914Z,1010.69
2016-09-09T08:18:05.113Z,1010.75
2016-09-09T08:19:04.906Z,1010.76
2016-09-09T08:20:04.896Z,1010.73
2016-09-09T08:21:04.889Z,1010.73
2016-09-09T08:22:04.882Z,1010.71
2016-09-09T08:23:04.875Z,1010.71
2016-09-09T08:24:04.868Z,1010.72
2016-09-09T08:25:04.863Z,1010.75
2016-09-09T08:26:04.858Z,1010.74
2016-09-09T08:27:04.849Z,1010.79
2016-09-09T08:28:04.845Z,1010.74
2016-09-09T08:29:04.885Z,1010.76
2016-09-09T08:30:04.837Z,1010.8
2016-09-09T08:31:04.826Z,1010.77
2016-09-09T08:32:04.819Z,1010.82
2016-09-09T08:33:04.823Z,1010.81
2016-09-09T08:34:04.807Z,1010.82
2016-09-09T08:35:04.800Z,1010.83
2016-09-09T08:36:04.794Z,1010.83
2016-09-09T08:37:04.789Z,1010.82
2016-09-09T08:38:04.784Z,1010.82
2016-09-09T08:39:04.775Z,1010.78
2016-09-09T08:40:04.770Z,1010.82
2016-09-09T08:41:04.766Z,1010.81
2016-09-09T08:42:04.756Z,1010.81
2016-09-09T08:43:04.751Z,1010.86
2016-09-09T08:44:04.744Z,1010.85
2016-09-09T08:45:04.739Z,1010.86
2016-09-09T08:46:04.733Z,1010.88
2016-09-09T08:47:04.726Z,1010.92
2016-09-09T08:48:04.721Z,1010.87
2016-09-09T08:49:04.713Z,1010.86
2016-09-09T08:50:04.708Z,1010.87
2016-09-09T08:51:04.702Z,1010.83
2016-09-09T08:52:04.696Z,1010.85
2016-09-09T08:53:04.689Z,1010.87
2016-09-09T08:54:04.684Z,1010.88
2016-09-09T08:55:04.676Z,1010.86
2016-09-09T08:56:04.672Z,1010.9
2016-09-09T08:57:04.665Z,1010.9
2016-09-09T08:58:04.659Z,1010.85
2016-09-09T08:59:04.657Z,1010.85
2016-09-09T09:00:04.646Z,1010.87
2016-09-09T09:01:04.652Z,1010.89
2016-09-09T09:02:04.633Z,1010.89
2016-09-09T09:03:04.627Z,1010.9
2016-09-09T09:04:04.623Z,1010.87
2016-09-09T09:05:04.616Z,1010.88
2016-09-09T09:06:04.608Z,1010.82
2016-09-09T09:07:04.603Z,1010.84
2016-09-09T09:08:04.600Z,1010.83
2016-09-09T09:09:04.590Z,1010.81
2016-09-09T09:10:04.583Z,1010.86
2016-09-09T09:11:04.577Z,1010.88
2016-09-09T09:12:04.571Z,1010.82
2016-09-09T09:13:04.566Z,1010.88
2016-09-09T09:14:04.561Z,1010.85
2016-09-09T09:15:04.561Z,1010.82
2016-09-09T09:16:04.547Z,1010.8
2016-09-09T09:17:04.541Z,1010.79
2016-09-09T09:18:04.535Z,1010.72
2016-09-09T09:19:04.529Z,1010.74
2016-09-09T09:20:04.523Z,1010.8
2016-09-09T09:21:04.516Z,1010.81
2016-09-09T09:22:04.510Z,1010.82
2016-09-09T09:23:04.505Z,1010.85
2016-09-09T09:24:04.504Z,1010.84
2016-09-09T09:25:04.492Z,1010.83
2016-09-09T09:26:04.483Z,1010.83
2016-09-09T09:27:04.479Z,1010.85
2016-09-09T09:28:04.471Z,1010.84
2016-09-09T09:29:04.468Z,1010.83
2016-09-09T09:30:04.457Z,1010.87
2016-09-09T09:31:04.453Z,1010.8
2016-09-09T09:32:04.445Z,1010.83
2016-09-09T09:33:04.440Z,1010.86
2016-09-09T09:34:04.432Z,1010.85
2016-09-09T09:35:04.429Z,1010.84
2016-09-09T09:36:04.420Z,1010.84
2016-09-09T09:37:04.414Z,1010.82
2016-09-09T09:38:04.408Z,1010.82
2016-09-09T09:39:04.404Z,1010.84
2016-09-09T09:40:04.396Z,1010.84
2016-09-09T09:41:04.390Z,1010.82
2016-09-09T09:42:04.384Z,1010.82
2016-09-09T09:43:04.380Z,1010.81
2016-09-09T09:44:04.372Z,1010.83
2016-09-09T09:45:04.369Z,1010.8
2016-09-09T09:46:04.361Z,1010.81
2016-09-09T09:47:04.355Z,1010.84
2016-09-09T09:48:04.347Z,1010.79
2016-09-09T09:49:04.343Z,1010.78
2016-09-09T09:50:04.336Z,1010.85
2016-09-09T09:51:04.331Z,1010.8
2016-09-09T09:52:04.329Z,1010.84
2016-09-09T09:53:04.319Z,1010.79
2016-09-09T09:54:04.314Z,1010.79
2016-09-09T09:55:04.308Z,1010.82
2016-09-09T09:56:04.302Z,1010.75
2016-09-09T09:57:04.295Z,1010.78
2016-09-09T09:58:04.341Z,1010.73
2016-09-09T09:59:04.283Z,1010.75
2016-09-09T10:00:04.277Z,1010.75
2016-09-09T10:01:04.273Z,1010.75
2016-09-09T10:02:04.265Z,1010.76
2016-09-09T10:03:04.259Z,1010.75
2016-09-09T10:04:04.255Z,1010.75
2016-09-09T10:05:04.249Z,1010.74
2016-09-09T10:06:04.241Z,1010.72
2016-09-09T10:07:04.239Z,1010.72
2016-09-09T10:08:04.233Z,1010.65
2016-09-09T10:09:04.226Z,1010.72
2016-09-09T10:10:04.221Z,1010.7
2016-09-09T10:11:04.214Z,1010.7
2016-09-09T10:12:04.223Z,1010.65
2016-09-09T10:13:04.204Z,1010.66
2016-09-09T10:14:04.199Z,1010.68
2016-09-09T10:15:04.193Z,1010.62
2016-09-09T10:16:04.189Z,1010.58
2016-09-09T10:17:04.180Z,1010.59
2016-09-09T10:18:04.380Z,1010.54
2016-09-09T10:19:04.172Z,1010.58
2016-09-09T10:20:04.168Z,1010.55
2016-09-09T10:21:04.160Z,1010.56
2016-09-09T10:22:04.159Z,1010.51
2016-09-09T10:23:04.148Z,1010.53
2016-09-09T10:24:04.143Z,1010.57
2016-09-09T10:25:04.138Z,1010.49
2016-09-09T10:26:04.132Z,1010.51
2016-09-09T10:27:04.128Z,1010.5
2016-09-09T10:28:04.121Z,1010.49
2016-09-09T10:29:04.116Z,1010.47
2016-09-09T10:30:04.113Z,1010.47
2016-09-09T10:31:04.105Z,1010.48
2016-09-09T10:32:04.099Z,1010.46
2016-09-09T10:33:04.096Z,1010.43
2016-09-09T10:34:04.091Z,1010.43
2016-09-09T10:35:04.085Z,1010.43
2016-09-09T10:36:04.078Z,1010.47
2016-09-09T10:37:04.074Z,1010.44
2016-09-09T10:38:04.068Z,1010.46
2016-09-09T10:39:04.062Z,1010.49
2016-09-09T10:40:04.058Z,1010.45
2016-09-09T10:41:04.053Z,1010.48
2016-09-09T10:42:04.048Z,1010.46
2016-09-09T10:43:04.041Z,1010.52
2016-09-09T10:44:04.038Z,1010.48
2016-09-09T10:45:04.033Z,1010.44
2016-09-09T10:46:04.026Z,1010.5
2016-09-09T10:47:04.020Z,1010.46
2016-09-09T10:48:04.015Z,1010.48
2016-09-09T10:49:04.010Z,1010.43
2016-09-09T10:50:04.005Z,1010.45
2016-09-09T10:51:03.999Z,1010.49
2016-09-09T10:52:03.995Z,1010.43
2016-09-09T10:53:03.989Z,1010.45
2016-09-09T10:54:03.983Z,1010.43
2016-09-09T10:55:03.980Z,1010.39
2016-09-09T10:56:03.974Z,1010.41
2016-09-09T10:57:03.971Z,1010.43
2016-09-09T10:58:03.963Z,1010.37
2016-09-09T10:59:03.960Z,1010.39
2016-09-09T11:00:03.956Z,1010.4
2016-09-09T11:01:03.950Z,1010.43
2016-09-09T11:02:03.948Z,1010.38
2016-09-09T11:03:03.956Z,1010.5
2016-09-09T11:04:03.941Z,1010.45
2016-09-09T11:05:03.933Z,1010.45
2016-09-09T11:06:03.930Z,1010.5
2016-09-09T11:07:03.925Z,1010.49
2016-09-09T11:08:03.921Z,1010.48
2016-09-09T11:09:03.918Z,1010.49
2016-09-09T11:10:03.918Z,1010.44
2016-09-09T11:11:03.912Z,1010.48
2016-09-09T11:12:03.907Z,1010.46
2016-09-09T11:13:03.909Z,1010.43
2016-09-09T11:14:03.904Z,1010.46
2016-09-09T11:15:03.901Z,1010.5
2016-09-09T11:16:03.901Z,1010.54
2016-09-09T11:17:03.896Z,1010.56
2016-09-09T11:18:03.896Z,1010.52
2016-09-09T11:19:03.894Z,1010.5
2016-09-09T11:20:03.894Z,1010.51
2016-09-09T11:21:03.894Z,1010.6
2016-09-09T11:22:03.894Z,1010.59
2016-09-09T11:23:03.893Z,1010.5
2016-09-09T11:24:03.893Z,1010.51
2016-09-09T11:25:03.892Z,1010.47
2016-09-09T11:26:03.893Z,1010.5
2016-09-09T11:27:03.893Z,1010.54
2016-09-09T11:28:03.895Z,1010.54
2016-09-09T11:29:03.934Z,1010.55
2016-09-09T11:30:03.904Z,1010.59
2016-09-09T11:31:03.904Z,1010.59
2016-09-09T11:32:03.902Z,1010.54
2016-09-09T11:33:03.907Z,1010.56
2016-09-09T11:34:03.904Z,1010.48
2016-09-09T11:35:03.904Z,1010.54
2016-09-09T11:36:03.907Z,1010.53
2016-09-09T11:37:03.907Z,1010.55
2016-09-09T11:38:03.909Z,1010.55
2016-09-09T11:39:03.911Z,1010.56
2016-09-09T11:40:03.915Z,1010.58
2016-09-09T11:41:03.915Z,1010.56
2016-09-09T11:42:03.921Z,1010.55
2016-09-09T11:43:03.926Z,1010.58
2016-09-09T11:44:03.923Z,1010.54
2016-09-09T11:45:03.925Z,1010.53
2016-09-09T11:46:03.927Z,1010.53
2016-09-09T11:47:03.940Z,1010.54
2016-09-09T11:48:03.936Z,1010.54
2016-09-09T11:49:03.938Z,1010.53
2016-09-09T11:50:03.945Z,1010.53
2016-09-09T11:51:03.951Z,1010.59
2016-09-09T11:52:03.943Z,1010.57
2016-09-09T11:53:03.949Z,1010.54
2016-09-09T11:54:03.950Z,1010.48
2016-09-09T11:55:03.954Z,1010.55
2016-09-09T11:56:03.953Z,1010.54
2016-09-09T11:57:03.957Z,1010.58
2016-09-09T11:58:03.960Z,1010.55
2016-09-09T11:59:03.961Z,1010.58
2016-09-09T12:00:03.965Z,1010.57
2016-09-09T12:01:03.967Z,1010.52
2016-09-09T12:02:03.971Z,1010.58
2016-09-09T12:03:03.985Z,1010.51
2016-09-09T12:04:03.978Z,1010.51
2016-09-09T12:05:03.984Z,1010.51
2016-09-09T12:06:03.983Z,1010.51
2016-09-09T12:07:03.984Z,1010.51